Time;durP1;ratioP1;P1;durP2;ratioP2;P2;SDS_P1;SDS_P2;PMS_P1;PMS_P2;Temp;Humidity;BMP_temperature;BMP_pressure;BME280_temperature;BME280_humidity;BME280_pressure;Samples;Min_cycle;Max_cycle;Signal;HPM_P1;HPM_P2
2021/04/19 00:02:20;;;;;;;17.25;13.45;;;;;;;3.51;84.29;100742.20;1698574;82;21132;-69
2021/04/19 00:04:49;;;;;;;16.10;13.53;;;;;;;3.48;84.30;100743.92;1726729;82;21187;-68
2021/04/19 00:07:18;;;;;;;19.70;13.88;;;;;;;3.46;84.38;100738.06;1718344;82;21073;-69
2021/04/19 00:09:47;;;;;;;17.95;13.70;;;;;;;3.47;84.49;100748.11;1714161;82;21237;-70
2021/04/19 00:12:15;;;;;;;19.70;14.05;;;;;;;3.46;84.59;100740.70;1679327;83;21711;-70
2021/04/19 00:14:44;;;;;;;18.37;14.03;;;;;;;3.47;84.66;100739.67;1688961;84;21342;-70
2021/04/19 00:17:13;;;;;;;17.15;14.18;;;;;;;3.47;84.73;100741.51;1679561;83;21136;-69
2021/04/19 00:19:43;;;;;;;16.30;13.40;;;;;;;3.46;84.75;100732.78;1708600;82;21177;-70
2021/04/19 00:22:13;;;;;;;15.93;12.80;;;;;;;3.46;84.78;100738.58;1706371;82;21194;-70
2021/04/19 00:24:42;;;;;;;15.43;12.75;;;;;;;3.43;84.85;100736.34;1708988;83;21121;-69
2021/04/19 00:27:11;;;;;;;14.75;12.10;;;;;;;3.38;84.95;100729.02;1688551;83;21140;-70
2021/04/19 00:29:39;;;;;;;14.38;12.03;;;;;;;3.37;85.13;100728.72;1682605;83;21177;-70
2021/04/19 00:32:08;;;;;;;13.78;11.57;;;;;;;3.32;85.22;100728.52;1684527;83;21215;-70
2021/04/19 00:34:37;;;;;;;13.38;11.88;;;;;;;3.30;85.41;100721.33;1682224;83;21160;-70
2021/04/19 00:37:05;;;;;;;13.28;11.68;;;;;;;3.28;85.53;100720.70;1687362;83;21216;-70
2021/04/19 00:39:36;;;;;;;13.88;11.88;;;;;;;3.26;85.66;100717.48;1686912;83;21118;-69
2021/04/19 00:42:06;;;;;;;14.23;12.30;;;;;;;3.28;85.73;100720.19;1702196;82;21209;-70
2021/04/19 00:44:34;;;;;;;14.68;12.00;;;;;;;3.29;85.77;100723.16;1670575;84;21236;-70
2021/04/19 00:47:03;;;;;;;12.82;10.68;;;;;;;3.34;85.84;100723.05;1658902;84;21097;-70
2021/04/19 00:49:32;;;;;;;14.43;11.68;;;;;;;3.36;85.82;100723.15;1690366;84;21218;-69
2021/04/19 00:52:01;;;;;;;13.22;11.18;;;;;;;3.39;85.84;100721.42;1687750;83;21161;-71
2021/04/19 00:54:30;;;;;;;15.15;12.10;;;;;;;3.41;85.90;100725.97;1683312;83;21221;-69
2021/04/19 00:56:58;;;;;;;13.50;11.68;;;;;;;3.43;85.87;100720.50;1688616;83;21207;-70
2021/04/19 00:59:27;;;;;;;14.28;11.90;;;;;;;3.41;85.73;100722.01;1658842;84;21167;-71
2021/04/19 01:01:55;;;;;;;15.18;11.68;;;;;;;3.38;85.65;100722.41;1686398;82;21304;-70
2021/04/19 01:04:25;;;;;;;14.45;11.45;;;;;;;3.36;85.62;100716.55;1687322;84;21185;-70
2021/04/19 01:06:54;;;;;;;19.07;12.78;;;;;;;3.35;85.62;100711.45;1686977;83;21276;-70
2021/04/19 01:09:22;;;;;;;16.77;11.55;;;;;;;3.25;85.63;100710.55;1687680;84;21184;-69
2021/04/19 01:11:51;;;;;;;14.43;10.30;;;;;;;3.20;85.75;100707.73;1708739;82;21233;-70
2021/04/19 01:14:19;;;;;;;22.27;11.35;;;;;;;3.21;85.89;100706.70;1682226;83;21217;-70
2021/04/19 01:16:48;;;;;;;33.13;11.10;;;;;;;3.24;85.98;100706.30;1687673;83;21592;-70
2021/04/19 01:19:17;;;;;;;26.60;11.70;;;;;;;3.24;86.02;100707.63;1677598;83;21777;-69
2021/04/19 01:21:46;;;;;;;17.92;11.53;;;;;;;3.24;86.11;100706.30;1688448;83;21171;-70
2021/04/19 01:24:14;;;;;;;15.63;10.98;;;;;;;3.19;86.19;100705.61;1713213;82;21212;-70
2021/04/19 01:26:44;;;;;;;14.35;10.48;;;;;;;3.19;86.27;100710.05;1673847;83;22125;-69
2021/04/19 01:29:13;;;;;;;12.58;9.90;;;;;;;3.20;86.31;100709.86;1679957;82;21115;-68
2021/04/19 01:31:41;;;;;;;13.45;9.65;;;;;;;3.20;86.38;100711.17;1705847;83;21184;-70
2021/04/19 01:34:11;;;;;;;11.45;9.50;;;;;;;3.21;86.42;100702.75;1698485;82;21662;-71
2021/04/19 01:36:41;;;;;;;13.80;10.82;;;;;;;3.20;86.44;100695.85;1693499;83;21085;-71
2021/04/19 01:39:16;;;;;;;20.85;10.93;;;;;;;3.20;86.46;100699.81;1697393;82;21364;-69
2021/04/19 01:41:40;;;;;;;12.93;10.40;;;;;;;3.17;86.46;100705.50;1729129;82;21203;-70
2021/04/19 01:44:09;;;;;;;47.65;12.88;;;;;;;3.14;86.48;100707.22;1701145;82;21165;-70
2021/04/19 01:46:38;;;;;;;81.08;13.78;;;;;;;3.15;86.61;100702.23;1704394;82;21179;-70
2021/04/19 01:49:16;;;;;;;29.63;11.83;;;;;;;3.12;86.72;100699.49;1690850;82;21279;-70
2021/04/19 01:51:47;;;;;;;31.85;12.63;;;;;;;3.11;86.84;100695.23;1697585;82;22462;-70
2021/04/19 01:54:15;;;;;;;15.03;11.95;;;;;;;3.09;86.91;100699.09;1697893;82;21282;-70
2021/04/19 01:56:43;;;;;;;14.45;11.60;;;;;;;3.08;86.98;100690.87;1697045;82;21105;-69
2021/04/19 01:59:11;;;;;;;16.02;12.82;;;;;;;3.04;87.04;100693.12;1702620;84;21149;-70
2021/04/19 02:02:05;;;;;;;15.55;12.18;;;;;;;3.03;87.12;100694.95;1702767;82;21659;-70
2021/04/19 02:04:54;;;;;;;17.77;12.88;;;;;;;3.03;87.18;100691.50;1706711;81;21286;-70
2021/04/19 02:07:53;;;;;;;16.42;13.03;;;;;;;3.02;87.25;100691.18;1704661;81;21152;-70
2021/04/19 02:10:45;;;;;;;16.77;12.15;;;;;;;2.99;87.31;100690.27;1690754;83;21128;-70
2021/04/19 02:13:19;;;;;;;;;;;;;;;3.02;87.38;100694.63;1689557;83;21096;-69
2021/04/19 02:16:30;;;;;;;16.27;11.53;;;;;;;3.08;87.35;100694.33;1816367;77;23549;-70
2021/04/19 02:19:22;;;;;;;15.45;12.10;;;;;;;3.05;87.34;100699.50;1751645;79;21139;-70
2021/04/19 02:21:54;;;;;;;16.37;11.83;;;;;;;3.05;87.31;100696.86;1782230;80;21824;-70
2021/04/19 02:24:30;;;;;;;16.40;11.87;;;;;;;3.11;87.23;100692.60;1820716;76;22292;-70
2021/04/19 02:27:07;;;;;;;17.70;12.98;;;;;;;3.06;87.18;100695.06;1815552;78;21488;-73
2021/04/19 02:29:41;;;;;;;16.77;12.07;;;;;;;3.07;87.17;100696.67;1819758;78;21275;-70
2021/04/19 02:32:15;;;;;;;17.92;12.13;;;;;;;3.05;87.19;100694.73;1804593;77;21226;-70
2021/04/19 02:34:44;;;;;;;15.60;12.00;;;;;;;3.03;87.23;100696.27;1807625;77;21581;-70
2021/04/19 02:37:13;;;;;;;15.58;12.05;;;;;;;3.01;87.26;100693.01;1811612;78;21813;-71
2021/04/19 02:39:44;;;;;;;17.20;11.68;;;;;;;3.00;87.32;100695.36;1809281;78;21132;-70
2021/04/19 02:42:12;;;;;;;16.45;12.23;;;;;;;3.02;87.33;100695.95;1803577;78;21184;-70
2021/04/19 02:44:41;;;;;;;16.30;12.23;;;;;;;3.03;87.34;100694.95;1808128;77;21081;-69
2021/04/19 02:47:16;;;;;;;17.57;12.78;;;;;;;3.05;87.35;100694.22;1802314;78;21018;-70
2021/04/19 02:49:47;;;;;;;18.07;12.43;;;;;;;3.04;87.38;100700.52;1792144;78;21173;-70
2021/04/19 02:52:15;;;;;;;18.05;13.10;;;;;;;3.05;87.48;100696.86;1790723;79;21148;-70
2021/04/19 02:54:44;;;;;;;16.12;12.03;;;;;;;3.06;87.52;100699.02;1807534;77;21200;-69
2021/04/19 02:57:29;;;;;;;14.58;11.63;;;;;;;3.07;87.50;100691.39;1791783;79;21206;-71
2021/04/19 02:59:57;;;;;;;14.83;10.50;;;;;;;3.09;87.37;100696.45;1788330;79;21139;-70
2021/04/19 03:02:28;;;;;;;14.43;11.45;;;;;;;3.04;87.20;100691.29;1791136;79;21187;-70
2021/04/19 03:04:57;;;;;;;15.23;12.10;;;;;;;3.01;87.03;100696.16;1796356;78;21166;-70
2021/04/19 03:07:29;;;;;;;15.90;11.85;;;;;;;2.98;86.93;100702.65;1795436;79;21192;-70
2021/04/19 03:10:02;;;;;;;16.27;13.10;;;;;;;2.93;86.90;100702.95;1786033;79;21130;-71
2021/04/19 03:12:30;;;;;;;17.32;12.05;;;;;;;2.89;86.89;100701.22;1745798;79;21595;-71
2021/04/19 03:15:08;;;;;;;14.03;11.57;;;;;;;2.88;86.85;100709.35;1795383;77;21162;-69
2021/04/19 03:17:38;;;;;;;15.35;11.60;;;;;;;2.83;86.73;100708.66;1787039;79;21175;-70
2021/04/19 03:20:26;;;;;;;13.58;10.95;;;;;;;2.78;86.62;100713.20;1785500;79;21876;-70
2021/04/19 03:23:02;;;;;;;13.28;11.05;;;;;;;2.76;86.53;100706.49;1788670;79;21165;-70
2021/04/19 03:25:33;;;;;;;13.35;11.53;;;;;;;2.74;86.50;100711.17;1796629;77;21147;-70
2021/04/19 03:28:04;;;;;;;14.75;11.57;;;;;;;2.70;86.48;100707.30;1802929;79;21159;-69
2021/04/19 03:30:33;;;;;;;12.43;10.58;;;;;;;2.68;86.43;100707.51;1774686;80;21131;-69
2021/04/19 03:33:06;;;;;;;15.25;11.88;;;;;;;2.59;86.40;100713.47;1787270;77;21384;-70
2021/04/19 03:35:37;;;;;;;14.68;12.03;;;;;;;2.50;86.41;100717.33;1798728;79;21207;-70
2021/04/19 03:38:07;;;;;;;13.78;11.45;;;;;;;2.40;86.46;100718.19;1795860;79;21635;-69
2021/04/19 03:40:36;;;;;;;15.03;12.60;;;;;;;2.30;86.53;100715.97;1794560;79;21127;-70
2021/04/19 03:43:09;;;;;;;15.98;12.70;;;;;;;2.23;86.62;100709.83;1788314;77;21203;-70
2021/04/19 03:45:40;;;;;;;16.05;12.95;;;;;;;2.21;86.72;100711.06;1770538;79;21344;-70
2021/04/19 03:48:25;;;;;;;15.47;11.47;;;;;;;2.26;86.83;100709.95;1771921;79;23297;-70
2021/04/19 03:51:05;;;;;;;16.65;12.37;;;;;;;2.21;86.92;100715.83;1743029;81;21107;-70
2021/04/19 03:53:35;;;;;;;15.23;12.20;;;;;;;2.22;87.03;100720.08;1756108;80;22143;-69
2021/04/19 03:56:05;;;;;;;14.68;11.35;;;;;;;2.25;87.21;100716.24;1762630;79;21506;-70
2021/04/19 03:58:35;;;;;;;14.98;12.73;;;;;;;2.28;87.29;100715.34;1746161;81;21116;-70
2021/04/19 04:01:06;;;;;;;14.73;11.83;;;;;;;2.33;87.44;100714.73;1795383;79;21116;-72
2021/04/19 04:03:49;;;;;;;13.78;12.28;;;;;;;2.41;87.56;100715.88;1790359;79;21119;-70
2021/04/19 04:06:20;;;;;;;15.85;12.37;;;;;;;2.52;87.65;100710.52;1797244;77;21193;-70
2021/04/19 04:08:49;;;;;;;13.95;12.30;;;;;;;2.62;87.73;100716.73;1793165;79;21632;-69
2021/04/19 04:11:18;;;;;;;13.93;11.70;;;;;;;2.71;87.84;100717.66;1782314;80;21207;-70
2021/04/19 04:13:48;;;;;;;13.72;10.95;;;;;;;2.84;87.94;100718.19;1785512;79;21174;-70
2021/04/19 04:16:16;;;;;;;15.08;11.25;;;;;;;2.97;87.96;100711.59;1796426;77;21198;-70
2021/04/19 04:19:02;;;;;;;14.40;11.12;;;;;;;3.03;87.97;100713.42;1801654;79;21394;-70
2021/04/19 04:21:34;;;;;;;13.68;11.95;;;;;;;3.15;88.05;100711.48;1800760;79;21079;-69
2021/04/19 04:24:06;;;;;;;14.23;11.75;;;;;;;3.24;88.05;100711.58;1793437;77;21159;-70
2021/04/19 04:26:34;;;;;;;14.90;12.82;;;;;;;3.28;88.11;100718.06;1793590;77;21535;-70
2021/04/19 04:29:03;;;;;;;14.98;11.65;;;;;;;3.34;88.17;100718.57;1792834;79;21139;-70
2021/04/19 04:31:34;;;;;;;14.68;11.88;;;;;;;3.42;88.27;100715.73;1792092;79;21204;-70
2021/04/19 04:34:04;;;;;;;13.48;11.80;;;;;;;3.48;88.31;100722.00;1786237;79;21076;-69
2021/04/19 04:36:34;;;;;;;14.75;11.88;;;;;;;3.57;88.36;100716.80;1792812;79;21147;-70
2021/04/19 04:39:05;;;;;;;13.25;9.80;;;;;;;3.64;88.38;100719.42;1798188;79;21123;-70
2021/04/19 04:41:38;;;;;;;13.68;10.90;;;;;;;3.70;88.40;100724.69;1789752;79;21187;-70
2021/04/19 04:44:10;;;;;;;15.70;11.85;;;;;;;3.72;88.39;100725.83;1791809;79;21338;-70
2021/04/19 04:47:10;;;;;;;20.65;12.93;;;;;;;3.73;88.47;100727.44;1791137;77;21543;-70
2021/04/19 04:49:43;;;;;;;16.95;13.38;;;;;;;3.80;88.51;100724.27;1794429;79;21206;-70
2021/04/19 04:52:12;;;;;;;20.15;16.20;;;;;;;3.85;88.49;100720.50;1803201;79;21188;-69
2021/04/19 04:54:42;;;;;;;24.52;17.95;;;;;;;3.93;88.58;100716.30;1787115;79;21135;-70
2021/04/19 04:57:11;;;;;;;25.70;20.65;;;;;;;4.05;88.60;100711.66;1770593;79;21197;-70
2021/04/19 04:59:39;;;;;;;28.25;21.17;;;;;;;4.21;88.69;100703.25;1744661;80;21221;-71
2021/04/19 05:02:09;;;;;;;29.57;21.52;;;;;;;4.37;88.72;100704.08;1793660;79;21171;-70
2021/04/19 05:04:37;;;;;;;26.93;20.70;;;;;;;4.56;88.79;100705.51;1799219;79;21214;-70
2021/04/19 05:07:07;;;;;;;28.15;22.05;;;;;;;4.70;88.77;100703.06;1790423;79;21199;-70
2021/04/19 05:09:35;;;;;;;26.35;19.87;;;;;;;4.86;88.81;100703.86;1792875;79;21225;-69
2021/04/19 05:12:05;;;;;;;21.05;16.80;;;;;;;5.04;88.82;100709.73;1785632;79;21234;-70
2021/04/19 05:14:37;;;;;;;22.60;16.48;;;;;;;5.23;88.81;100709.77;1786077;79;21552;-70
2021/04/19 05:17:04;;;;;;;21.25;16.52;;;;;;;5.40;88.75;100706.36;1789703;79;21173;-70
2021/04/19 05:19:33;;;;;;;21.23;16.65;;;;;;;5.60;88.65;100706.16;1794973;79;21520;-69
2021/04/19 05:22:02;;;;;;;21.97;16.62;;;;;;;5.78;88.47;100700.03;1798778;79;21657;-72
2021/04/19 05:24:31;;;;;;;18.10;15.23;;;;;;;5.93;88.25;100706.33;1806343;79;21123;-70
2021/04/19 05:26:59;;;;;;;19.45;14.55;;;;;;;6.10;88.17;100702.55;1791449;79;21238;-70
2021/04/19 05:29:28;;;;;;;18.60;14.73;;;;;;;6.32;87.99;100698.37;1787714;79;21211;-70
2021/04/19 05:31:56;;;;;;;17.05;14.18;;;;;;;6.50;87.55;100695.38;1795018;79;21084;-70
2021/04/19 05:34:25;;;;;;;17.30;14.47;;;;;;;6.65;87.32;100692.31;1789425;79;21139;-70
2021/04/19 05:36:53;;;;;;;16.70;13.68;;;;;;;6.82;86.86;100697.24;1792940;79;21135;-71
2021/04/19 05:39:22;;;;;;;18.52;14.85;;;;;;;6.95;86.25;100693.05;1791714;79;21685;-69
2021/04/19 05:41:51;;;;;;;17.95;14.20;;;;;;;7.06;85.83;100687.45;1798490;79;21059;-70
2021/04/19 05:44:20;;;;;;;15.83;12.53;;;;;;;7.20;85.20;100694.66;1802989;79;21080;-70
2021/04/19 05:46:48;;;;;;;17.25;13.13;;;;;;;7.32;84.52;100693.34;1794651;77;21282;-70
2021/04/19 05:49:17;;;;;;;17.75;13.80;;;;;;;7.44;84.03;100688.84;1790538;79;21127;-70
2021/04/19 05:51:46;;;;;;;17.95;13.40;;;;;;;7.59;83.47;100688.34;1798103;79;21083;-70
2021/04/19 05:54:16;;;;;;;17.67;14.43;;;;;;;7.70;82.68;100687.50;1802679;77;21170;-70
2021/04/19 05:57:11;;;;;;;17.45;13.70;;;;;;;7.79;81.88;100684.77;1784775;77;21108;-70
2021/04/19 06:00:15;;;;;;;14.80;12.58;;;;;;;7.95;81.13;100683.23;1782583;78;27987;-70
2021/04/19 06:03:08;;;;;;;14.85;12.65;;;;;;;8.03;80.01;100683.38;1780380;80;21124;-70
2021/04/19 06:05:57;;;;;;;15.58;11.00;;;;;;;8.13;79.29;100679.60;1778392;80;21181;-69
2021/04/19 06:09:04;;;;;;;14.80;12.47;;;;;;;8.21;78.22;100673.88;1773543;79;21153;-69
2021/04/19 06:11:52;;;;;;;17.80;12.95;;;;;;;8.24;77.69;100670.75;1743398;81;21180;-69
2021/04/19 06:14:32;;;;;;;17.65;13.18;;;;;;;8.31;77.23;100671.41;1694883;84;21200;-71
2021/04/19 06:17:02;;;;;;;18.50;12.75;;;;;;;8.38;76.73;100668.63;1738070;80;22214;-69
2021/04/19 06:19:31;;;;;;;15.72;13.08;;;;;;;8.45;76.22;100666.61;1721429;81;21386;-70
2021/04/19 06:21:59;;;;;;;14.70;12.15;;;;;;;8.52;75.84;100667.27;1715437;81;21947;-68
2021/04/19 06:24:27;;;;;;;15.58;12.25;;;;;;;8.61;75.40;100663.16;1704980;83;21209;-69
2021/04/19 06:26:55;;;;;;;13.40;10.25;;;;;;;8.72;75.04;100660.66;1715545;82;21210;-70
2021/04/19 06:29:29;;;;;;;14.63;11.10;;;;;;;8.80;74.12;100651.76;1709920;83;21199;-69
2021/04/19 06:32:07;;;;;;;13.67;10.87;;;;;;;8.91;73.41;100652.72;1795916;78;22327;-70
2021/04/19 06:34:35;;;;;;;13.90;9.88;;;;;;;8.93;72.82;100654.63;1723367;81;21568;-70
2021/04/19 06:37:04;;;;;;;16.62;11.08;;;;;;;9.00;72.29;100652.59;1718649;81;21214;-70
2021/04/19 06:39:32;;;;;;;13.98;10.28;;;;;;;9.08;72.01;100655.36;1669519;83;21861;-70
2021/04/19 06:42:03;;;;;;;12.95;10.50;;;;;;;9.19;71.79;100651.81;1738032;81;21605;-70
2021/04/19 06:44:31;;;;;;;11.05;9.50;;;;;;;9.31;70.95;100647.19;1743390;81;21164;-70
2021/04/19 06:47:00;;;;;;;14.35;10.58;;;;;;;9.43;70.71;100648.92;1745519;81;21172;-70
2021/04/19 06:49:30;;;;;;;13.58;10.80;;;;;;;9.53;70.11;100646.38;1748632;81;21113;-70
2021/04/19 06:51:58;;;;;;;13.85;10.28;;;;;;;9.61;69.74;100640.10;1716548;82;21219;-69
2021/04/19 06:54:26;;;;;;;14.55;11.97;;;;;;;9.70;69.42;100640.98;1711757;82;21153;-70
2021/04/19 06:56:54;;;;;;;14.55;11.57;;;;;;;9.78;69.39;100642.70;1731639;82;21057;-70
2021/04/19 06:59:23;;;;;;;14.15;11.97;;;;;;;9.89;69.16;100644.14;1725184;81;21143;-70
2021/04/19 07:01:53;;;;;;;15.55;11.68;;;;;;;10.00;69.07;100638.69;1722903;81;21317;-70
2021/04/19 07:04:28;;;;;;;14.78;11.68;;;;;;;10.13;69.03;100633.98;1725325;83;21831;-70
2021/04/19 07:06:58;;;;;;;13.35;11.30;;;;;;;10.24;68.65;100632.51;1718009;81;21059;-69
2021/04/19 07:09:35;;;;;;;13.48;9.45;;;;;;;10.40;68.36;100640.67;1715479;82;21215;-70
2021/04/19 07:12:08;;;;;;;13.00;10.55;;;;;;;10.50;66.57;100632.77;1712237;81;21113;-70
2021/04/19 07:14:38;;;;;;;13.88;10.25;;;;;;;10.57;65.83;100625.34;1719006;82;21761;-69
2021/04/19 07:17:06;;;;;;;12.63;10.40;;;;;;;10.66;65.25;100623.83;1718390;82;21127;-70
2021/04/19 07:19:34;;;;;;;13.83;9.97;;;;;;;10.77;64.80;100622.03;1727092;82;21187;-69
2021/04/19 07:22:04;;;;;;;10.73;8.00;;;;;;;10.84;64.10;100621.80;1723985;81;21672;-70
2021/04/19 07:24:34;;;;;;;9.20;7.17;;;;;;;10.91;63.03;100616.50;1719987;82;21383;-70
2021/04/19 07:27:03;;;;;;;8.93;7.40;;;;;;;10.98;62.56;100615.74;1740048;81;21998;-69
2021/04/19 07:29:32;;;;;;;8.83;6.07;;;;;;;11.10;62.65;100608.88;1720657;81;21374;-72
2021/04/19 07:32:01;;;;;;;11.73;8.20;;;;;;;11.25;62.29;100614.81;1683121;84;21514;-69
2021/04/19 07:34:31;;;;;;;14.03;8.80;;;;;;;11.40;61.45;100608.22;1740173;81;21430;-70
2021/04/19 07:37:03;;;;;;;12.57;8.37;;;;;;;11.47;61.00;100602.09;1701405;82;21491;-70
2021/04/19 07:39:38;;;;;;;9.67;7.43;;;;;;;11.54;60.62;100597.03;1738598;81;22264;-70
2021/04/19 07:42:10;;;;;;;12.30;7.73;;;;;;;11.63;60.70;100595.47;1737184;82;21828;-69
2021/04/19 07:44:52;;;;;;;;;;;;;;;11.70;60.12;100587.99;1743121;81;21462;-69
2021/04/19 07:47:38;;;;;;;9.33;6.40;;;;;;;11.76;60.14;100595.52;1741768;81;20221;-70
2021/04/19 07:50:21;;;;;;;7.47;5.57;;;;;;;11.89;59.55;100592.36;1739713;80;21483;-70
2021/04/19 07:53:01;;;;;;;6.63;4.90;;;;;;;12.03;58.70;100584.62;1702963;83;21436;-71
2021/04/19 07:55:35;;;;;;;5.67;4.07;;;;;;;12.13;58.07;100588.10;1741794;81;21448;-70
2021/04/19 07:58:21;;;;;;;6.03;4.20;;;;;;;12.18;57.18;100585.45;1741393;80;21283;-69
2021/04/19 08:01:00;;;;;;;5.27;3.87;;;;;;;12.15;56.63;100585.17;1737643;81;21453;-70
2021/04/19 08:03:41;;;;;;;5.90;4.20;;;;;;;12.15;56.69;100585.17;1741169;81;21543;-70
2021/04/19 08:06:19;;;;;;;6.22;4.05;;;;;;;12.19;54.87;100588.92;1740406;81;21659;-71
2021/04/19 08:08:47;;;;;;;6.80;4.27;;;;;;;12.33;54.95;100583.83;1738019;82;21189;-70
2021/04/19 08:11:17;;;;;;;7.27;5.17;;;;;;;12.52;55.22;100578.75;1717250;81;21471;-70
2021/04/19 08:13:45;;;;;;;5.60;4.60;;;;;;;12.75;55.57;100576.84;1741766;81;21837;-70
2021/04/19 08:16:23;;;;;;;6.77;4.67;;;;;;;12.95;55.42;100577.33;1738498;81;21875;-70
2021/04/19 08:19:03;;;;;;;6.30;3.97;;;;;;;13.13;55.13;100578.64;1740107;81;22094;-70
2021/04/19 08:21:34;;;;;;;5.90;4.00;;;;;;;13.37;52.33;100574.82;1740006;81;21608;-71
2021/04/19 08:24:14;;;;;;;5.87;4.60;;;;;;;13.51;53.01;100571.00;1734084;82;21605;-70
2021/04/19 08:26:57;;;;;;;5.87;4.50;;;;;;;13.51;53.01;100571.00;1740577;81;22273;-70
2021/04/19 08:29:41;;;;;;;6.30;4.67;;;;;;;13.56;51.48;100563.73;1742174;81;21875;-72
2021/04/19 08:32:11;;;;;;;7.63;4.63;;;;;;;13.46;51.68;100560.27;1738354;81;21729;-71
2021/04/19 08:34:41;;;;;;;5.03;4.33;;;;;;;13.52;52.37;100569.91;1739247;81;21688;-70
2021/04/19 08:37:12;;;;;;;7.05;5.00;;;;;;;13.52;52.37;100569.91;1739917;81;21897;-70
2021/04/19 08:39:40;;;;;;;5.67;4.70;;;;;;;13.61;52.44;100566.91;1742314;81;21144;-70
2021/04/19 08:42:12;;;;;;;6.37;5.07;;;;;;;13.77;52.85;100574.34;1735988;81;21921;-70
2021/04/19 08:44:41;;;;;;;6.03;4.90;;;;;;;13.77;52.85;100574.34;1737915;80;22327;-69
2021/04/19 08:47:11;;;;;;;6.57;5.07;;;;;;;13.81;50.73;100571.36;1737480;80;22367;-70
2021/04/19 08:49:40;;;;;;;7.17;5.07;;;;;;;13.80;51.09;100574.59;1733657;81;21911;-71
2021/04/19 08:52:08;;;;;;;9.23;4.80;;;;;;;13.91;50.87;100574.53;1737470;81;21902;-69
2021/04/19 08:54:37;;;;;;;8.03;5.40;;;;;;;14.10;50.53;100561.25;1697867;80;21942;-70
2021/04/19 08:57:06;;;;;;;6.17;4.50;;;;;;;14.14;49.65;100563.08;1738667;82;21839;-70
2021/04/19 08:59:35;;;;;;;5.67;4.20;;;;;;;13.99;48.87;100566.69;1742864;82;21888;-70
2021/04/19 09:02:04;;;;;;;5.17;4.03;;;;;;;13.90;47.83;100567.56;1738946;81;22315;-69
2021/04/19 09:04:32;;;;;;;4.90;3.10;;;;;;;13.90;48.12;100567.56;1736317;82;22374;-70
2021/04/19 09:07:02;;;;;;;4.63;2.90;;;;;;;14.05;47.74;100564.23;1741551;81;21861;-70
2021/04/19 09:09:40;;;;;;;4.23;2.93;;;;;;;14.22;47.98;100558.47;1742521;82;22364;-69
2021/04/19 09:12:16;;;;;;;4.40;3.30;;;;;;;14.36;47.91;100561.30;1741038;81;22050;-70
2021/04/19 09:14:44;;;;;;;7.23;3.60;;;;;;;14.54;46.54;100560.64;1741182;81;21866;-70
2021/04/19 09:17:26;;;;;;;4.30;3.23;;;;;;;14.62;46.83;100557.08;1701833;83;21887;-70
2021/04/19 09:19:57;;;;;;;4.90;3.33;;;;;;;14.70;46.98;100553.20;1714113;82;22377;-69
2021/04/19 09:22:25;;;;;;;5.00;3.40;;;;;;;14.86;46.54;100551.72;1733895;81;21212;-69
2021/04/19 09:25:08;;;;;;;5.50;3.90;;;;;;;15.01;45.80;100553.70;1740251;80;21192;-70
2021/04/19 09:27:53;;;;;;;6.50;4.30;;;;;;;15.06;46.42;100546.66;1740495;82;21149;-70
2021/04/19 09:30:28;;;;;;;4.90;3.13;;;;;;;15.12;47.44;100553.03;1724930;80;21153;-70
2021/04/19 09:33:10;;;;;;;6.17;4.43;;;;;;;15.12;46.49;100547.65;1740373;80;21109;-70
2021/04/19 09:35:52;;;;;;;5.30;4.03;;;;;;;14.97;46.14;100547.81;1700462;84;21361;-70
2021/04/19 09:38:40;;;;;;;5.67;3.90;;;;;;;14.74;46.38;100550.23;1730422;81;21604;-69
2021/04/19 09:41:12;;;;;;;5.43;3.90;;;;;;;14.55;46.94;100554.72;1739739;80;21225;-72
2021/04/19 09:43:43;;;;;;;4.60;3.87;;;;;;;14.43;46.85;100562.32;1738885;80;21606;-70
2021/04/19 09:46:22;;;;;;;;;;;;;;;14.30;46.64;100558.39;1744622;81;21248;-70
2021/04/19 09:49:04;;;;;;;5.60;4.33;;;;;;;14.11;47.03;100560.95;1729920;81;21218;-70
2021/04/19 09:51:43;;;;;;;5.97;4.37;;;;;;;13.83;47.77;100564.64;1699965;83;22426;-71
2021/04/19 09:54:15;;;;;;;5.10;4.37;;;;;;;13.64;48.91;100566.91;1740866;80;21895;-70
2021/04/19 09:56:48;;;;;;;6.40;4.57;;;;;;;13.51;49.73;100561.06;1739682;82;21867;-71
2021/04/19 09:59:24;;;;;;;;;;;;;;;13.43;50.32;100563.53;1708969;84;21793;-70
2021/04/19 10:01:56;;;;;;;6.70;4.33;;;;;;;13.38;50.41;100565.69;1675296;83;22240;-71
2021/04/19 10:04:25;;;;;;;6.50;4.77;;;;;;;13.36;50.69;100556.59;1740375;82;21913;-70
2021/04/19 10:06:57;;;;;;;4.93;3.67;;;;;;;13.41;50.86;100559.77;1727285;81;21876;-70
2021/04/19 10:09:27;;;;;;;4.73;3.70;;;;;;;13.44;50.09;100566.47;1742716;82;22353;-70
2021/04/19 10:12:02;;;;;;;4.57;3.63;;;;;;;13.46;49.81;100566.47;1742306;80;22561;-70
2021/04/19 10:14:39;;;;;;;5.50;4.10;;;;;;;13.54;49.28;100571.25;1741023;80;21894;-70
2021/04/19 10:17:16;;;;;;;5.27;4.20;;;;;;;13.49;49.79;100565.92;1740401;81;21836;-70
2021/04/19 10:19:46;;;;;;;6.07;4.30;;;;;;;13.37;49.75;100576.96;1742721;82;21891;-70
2021/04/19 10:22:15;;;;;;;5.50;4.30;;;;;;;13.33;49.75;100579.94;1739715;81;22296;-70
2021/04/19 10:24:53;;;;;;;5.27;4.03;;;;;;;13.42;50.28;100578.80;1741067;82;21886;-70
2021/04/19 10:27:31;;;;;;;5.67;4.33;;;;;;;13.68;50.42;100579.48;1728579;82;22400;-70
2021/04/19 10:30:12;;;;;;;6.73;5.00;;;;;;;13.90;49.39;100583.67;1741755;81;21887;-69
2021/04/19 10:32:43;;;;;;;5.03;3.90;;;;;;;13.88;48.89;100587.16;1736969;80;28643;-70
2021/04/19 10:35:39;;;;;;;5.10;4.10;;;;;;;13.80;48.98;100586.67;1705357;84;21156;-70
2021/04/19 10:38:09;;;;;;;5.47;4.20;;;;;;;13.78;48.94;100587.48;1738405;80;22518;-69
2021/04/19 10:40:37;;;;;;;5.10;4.33;;;;;;;13.67;49.22;100583.80;1740383;82;22123;-71
2021/04/19 10:43:11;;;;;;;6.67;4.63;;;;;;;13.66;49.07;100583.55;1737927;81;21876;-70
2021/04/19 10:45:41;;;;;;;6.97;4.03;;;;;;;13.63;48.62;100589.47;1739960;82;21924;-70
2021/04/19 10:48:23;;;;;;;5.30;4.07;;;;;;;13.55;47.73;100582.23;1742327;82;22399;-70
2021/04/19 10:50:53;;;;;;;5.37;4.10;;;;;;;13.46;48.93;100594.64;1739943;81;21958;-70
2021/04/19 10:53:37;;;;;;;5.27;3.93;;;;;;;13.50;50.32;100589.52;1740806;80;21655;-69
2021/04/19 10:56:09;;;;;;;5.77;4.43;;;;;;;13.54;50.47;100591.38;1739920;80;21954;-70
2021/04/19 10:58:39;;;;;;;5.00;3.97;;;;;;;13.54;50.19;100589.23;1742180;82;21839;-69
2021/04/19 11:01:08;;;;;;;6.13;4.90;;;;;;;13.47;50.51;100592.21;1740702;82;21847;-71
2021/04/19 11:03:37;;;;;;;8.63;5.17;;;;;;;13.40;50.02;100594.94;1738889;81;21983;-70
2021/04/19 11:06:10;;;;;;;5.10;4.45;;;;;;;13.24;50.19;100594.98;1728026;81;21936;-71
2021/04/19 11:09:01;;;;;;;6.27;4.83;;;;;;;13.20;50.76;100594.44;1736647;82;21268;-69
2021/04/19 11:11:41;;;;;;;5.40;4.37;;;;;;;13.17;50.62;100594.45;1738479;81;21938;-70
2021/04/19 11:14:25;;;;;;;6.33;4.80;;;;;;;13.21;51.03;100594.70;1740374;80;21856;-70
2021/04/19 11:16:59;;;;;;;4.40;3.67;;;;;;;13.21;51.03;100594.70;1737732;81;22343;-70
2021/04/19 11:19:46;;;;;;;5.67;4.20;;;;;;;13.30;49.81;100593.89;1731740;82;21949;-70
2021/04/19 11:22:31;;;;;;;4.87;3.70;;;;;;;13.30;49.81;100593.89;1742926;82;21873;-71
2021/04/19 11:25:19;;;;;;;5.13;3.70;;;;;;;13.33;49.23;100586.64;1731867;80;21875;-70
2021/04/19 11:27:50;;;;;;;4.47;3.50;;;;;;;13.28;48.95;100574.58;1734327;81;22180;-69
2021/04/19 11:30:30;;;;;;;4.33;3.20;;;;;;;13.22;49.06;100574.30;1738609;81;21903;-70
2021/04/19 11:33:17;;;;;;;4.47;3.40;;;;;;;13.31;47.69;100572.69;1741554;81;21402;-69
2021/04/19 11:35:48;;;;;;;4.80;3.70;;;;;;;13.31;47.69;100572.69;1740548;80;21681;-69
2021/04/19 11:38:20;;;;;;;5.67;3.87;;;;;;;13.30;47.50;100567.06;1739823;81;21936;-68
2021/04/19 11:40:55;;;;;;;4.93;3.80;;;;;;;13.26;47.82;100568.70;1740134;81;21253;-71
2021/04/19 11:43:34;;;;;;;3.97;3.03;;;;;;;13.30;48.87;100571.64;1730474;81;22377;-70
2021/04/19 11:46:10;;;;;;;4.60;3.30;;;;;;;13.30;48.87;100571.64;1741008;81;21521;-71
2021/04/19 11:48:41;;;;;;;4.97;3.83;;;;;;;13.33;48.08;100557.67;1742137;81;21738;-70
2021/04/19 11:51:11;;;;;;;5.45;4.17;;;;;;;13.38;47.90;100561.66;1740553;82;21844;-71